createdAt,value
2023-03-17T00:01:13.872Z,101364.00
2023-03-17T00:03:42.280Z,101373.00
2023-03-17T00:06:18.913Z,101377.00
2023-03-17T00:08:46.583Z,101376.00
2023-03-17T00:11:16.050Z,101375.00
2023-03-17T00:13:44.572Z,101374.00
2023-03-17T00:16:17.054Z,101372.00
2023-03-17T00:18:44.663Z,101363.00
2023-03-17T00:21:16.599Z,101374.00
2023-03-17T00:23:50.631Z,101375.00
2023-03-17T00:26:17.453Z,101360.00
2023-03-17T00:28:44.669Z,101358.00
2023-03-17T00:31:32.586Z,101342.00
2023-03-17T00:33:59.184Z,101347.00
2023-03-17T00:36:31.381Z,101363.00
2023-03-17T00:38:58.892Z,101333.00
2023-03-17T00:41:27.214Z,101331.00
2023-03-17T00:43:53.997Z,101330.00
2023-03-17T00:46:35.399Z,101326.00
2023-03-17T00:49:09.617Z,101315.00
2023-03-17T00:51:36.059Z,101312.00
2023-03-17T00:54:02.550Z,101306.00
2023-03-17T00:56:29.095Z,101306.00
2023-03-17T00:58:55.590Z,101294.00
2023-03-17T01:01:22.125Z,101292.00
2023-03-17T01:03:48.617Z,101299.00
2023-03-17T01:06:16.297Z,101297.00
2023-03-17T01:08:44.669Z,101301.00
2023-03-17T01:11:20.049Z,101282.00
2023-03-17T01:13:46.843Z,101278.00
2023-03-17T01:16:14.215Z,101278.00
2023-03-17T01:18:41.209Z,101289.00
2023-03-17T01:21:08.072Z,101281.00
2023-03-17T01:23:34.536Z,101280.00
2023-03-17T01:26:01.025Z,101280.00
2023-03-17T01:28:28.329Z,101277.00
2023-03-17T01:30:55.450Z,101274.00
2023-03-17T01:33:22.259Z,101279.00
2023-03-17T01:35:50.693Z,101260.00
2023-03-17T01:38:17.927Z,101265.00
2023-03-17T01:40:48.183Z,101260.00
2023-03-17T01:43:27.739Z,101251.00
2023-03-17T01:46:13.190Z,101244.00
2023-03-17T01:48:43.303Z,101240.00
2023-03-17T01:51:13.833Z,101239.00
2023-03-17T01:53:41.133Z,101230.00
2023-03-17T01:56:07.968Z,101240.00
2023-03-17T01:58:34.584Z,101233.00
2023-03-17T02:01:01.671Z,101244.00
2023-03-17T02:03:29.779Z,101233.00
2023-03-17T02:05:59.336Z,101236.00
2023-03-17T02:08:26.354Z,101232.00
2023-03-17T02:10:54.254Z,101232.00
2023-03-17T02:13:20.866Z,101221.00
2023-03-17T02:15:50.815Z,101231.00
2023-03-17T02:18:20.584Z,101227.00
2023-03-17T02:20:46.989Z,101227.00
2023-03-17T02:23:21.058Z,101216.00
2023-03-17T02:25:48.110Z,101217.00
2023-03-17T02:28:19.672Z,101207.00
2023-03-17T02:30:46.230Z,101216.00
2023-03-17T02:33:12.824Z,101203.00
2023-03-17T02:35:40.812Z,101193.00
2023-03-17T02:38:07.342Z,101196.00
2023-03-17T02:40:33.814Z,101193.00
2023-03-17T02:43:00.487Z,101191.00
2023-03-17T02:45:27.595Z,101190.00
2023-03-17T02:47:56.072Z,101194.00
2023-03-17T02:50:27.825Z,101194.00
2023-03-17T02:52:54.897Z,101185.00
2023-03-17T02:55:21.438Z,101192.00
2023-03-17T02:57:47.970Z,101187.00
2023-03-17T03:00:15.420Z,101191.00
2023-03-17T03:02:42.751Z,101196.00
2023-03-17T03:05:10.936Z,101196.00
2023-03-17T03:07:37.505Z,101206.00
2023-03-17T03:10:05.495Z,101207.00
2023-03-17T03:12:33.315Z,101196.00
2023-03-17T03:15:00.700Z,101215.00
2023-03-17T03:17:27.263Z,101214.00
2023-03-17T03:19:53.802Z,101218.00
2023-03-17T03:22:20.448Z,101224.00
2023-03-17T03:24:46.952Z,101227.00
2023-03-17T03:27:13.500Z,101217.00
2023-03-17T03:29:40.052Z,101217.00
2023-03-17T03:32:07.303Z,101222.00
2023-03-17T03:34:33.934Z,101213.00
2023-03-17T03:37:00.579Z,101215.00
2023-03-17T03:39:27.018Z,101203.00
2023-03-17T03:41:57.264Z,101207.00
2023-03-17T03:44:24.658Z,101217.00
2023-03-17T03:46:51.809Z,101218.00
2023-03-17T03:49:18.476Z,101212.00
2023-03-17T03:51:44.950Z,101200.00
2023-03-17T03:54:11.445Z,101200.00
2023-03-17T03:56:37.959Z,101202.00
2023-03-17T03:59:04.424Z,101212.00
2023-03-17T04:01:30.908Z,101206.00
2023-03-17T04:03:57.409Z,101194.00
2023-03-17T04:06:23.854Z,101198.00
2023-03-17T04:08:50.629Z,101197.00
2023-03-17T04:11:17.136Z,101190.00
2023-03-17T04:13:43.606Z,101182.00
2023-03-17T04:16:10.121Z,101186.00
2023-03-17T04:18:36.912Z,101186.00
2023-03-17T04:21:03.484Z,101187.00
2023-03-17T04:23:31.492Z,101178.00
2023-03-17T04:25:58.461Z,101167.00
2023-03-17T04:28:25.003Z,101166.00
2023-03-17T04:30:51.631Z,101170.00
2023-03-17T04:33:18.997Z,101163.00
2023-03-17T04:35:45.617Z,101164.00
2023-03-17T04:38:13.230Z,101167.00
2023-03-17T04:40:39.913Z,101177.00
2023-03-17T04:43:06.591Z,101158.00
2023-03-17T04:45:33.338Z,101164.00
2023-03-17T04:47:59.846Z,101160.00
2023-03-17T04:50:26.538Z,101158.00
2023-03-17T04:52:53.049Z,101146.00
2023-03-17T04:55:19.600Z,101155.00
2023-03-17T04:57:46.531Z,101159.00
2023-03-17T05:00:13.367Z,101152.00
2023-03-17T05:02:40.016Z,101158.00
2023-03-17T05:05:06.964Z,101154.00
2023-03-17T05:07:34.223Z,101145.00
2023-03-17T05:10:00.947Z,101135.00
2023-03-17T05:12:27.871Z,101125.00
2023-03-17T05:14:54.367Z,101128.00
2023-03-17T05:17:21.422Z,101158.00
2023-03-17T05:19:48.195Z,101154.00
2023-03-17T05:22:14.668Z,101153.00
2023-03-17T05:24:42.954Z,101142.00
2023-03-17T05:27:09.833Z,101142.00
2023-03-17T05:29:36.298Z,101144.00
2023-03-17T05:32:02.773Z,101123.00
2023-03-17T05:34:29.236Z,101133.00
2023-03-17T05:36:55.709Z,101134.00
2023-03-17T05:39:22.194Z,101143.00
2023-03-17T05:41:48.667Z,101137.00
2023-03-17T05:44:16.429Z,101144.00
2023-03-17T05:46:42.954Z,101147.00
2023-03-17T05:49:10.088Z,101157.00
2023-03-17T05:51:37.039Z,101150.00
2023-03-17T05:54:03.731Z,101150.00
2023-03-17T05:56:33.966Z,101150.00
2023-03-17T05:59:01.685Z,101149.00
2023-03-17T06:01:28.799Z,101144.00
2023-03-17T06:03:57.676Z,101133.00
2023-03-17T06:06:24.611Z,101134.00
2023-03-17T06:08:51.667Z,101111.00
2023-03-17T06:11:20.641Z,101121.00
2023-03-17T06:13:47.649Z,101106.00
2023-03-17T06:16:14.310Z,101110.00
2023-03-17T06:18:40.790Z,101115.00
2023-03-17T06:21:07.362Z,101118.00
2023-03-17T06:23:34.461Z,101115.00
2023-03-17T06:26:01.011Z,101110.00
2023-03-17T06:28:27.472Z,101118.00
2023-03-17T06:30:53.976Z,101110.00
2023-03-17T06:33:20.492Z,101101.00
2023-03-17T06:35:47.068Z,101096.00
2023-03-17T06:38:13.721Z,101088.00
2023-03-17T06:40:40.335Z,101093.00
2023-03-17T06:43:07.524Z,101095.00
2023-03-17T06:45:34.355Z,101102.00
2023-03-17T06:48:01.738Z,101099.00
2023-03-17T06:50:28.372Z,101103.00
2023-03-17T06:52:54.947Z,101090.00
2023-03-17T06:55:21.591Z,101102.00
2023-03-17T06:57:50.518Z,101087.00
2023-03-17T07:00:18.294Z,101090.00
2023-03-17T07:02:44.868Z,101092.00
2023-03-17T07:05:12.712Z,101101.00
2023-03-17T07:07:39.566Z,101101.00
2023-03-17T07:10:07.066Z,101106.00
2023-03-17T07:12:33.774Z,101083.00
2023-03-17T07:15:01.429Z,101084.00
2023-03-17T07:17:28.136Z,101077.00
2023-03-17T07:19:54.597Z,101087.00
2023-03-17T07:22:21.129Z,101084.00
2023-03-17T07:24:49.254Z,101080.00
2023-03-17T07:27:16.602Z,101077.00
2023-03-17T07:29:43.302Z,101060.00
2023-03-17T07:32:10.579Z,101046.00
2023-03-17T07:34:37.736Z,101032.00
2023-03-17T07:37:05.244Z,101049.00
2023-03-17T07:39:31.926Z,101061.00
2023-03-17T07:41:58.376Z,101044.00
2023-03-17T07:44:25.939Z,101050.00
2023-03-17T07:46:52.678Z,101074.00
2023-03-17T07:49:33.995Z,101081.00
2023-03-17T07:52:08.533Z,101082.00
2023-03-17T07:54:36.005Z,101072.00
2023-03-17T07:57:03.259Z,101047.00
2023-03-17T07:59:30.106Z,101050.00
2023-03-17T08:01:58.195Z,101065.00
2023-03-17T08:04:24.666Z,101049.00
2023-03-17T08:06:51.249Z,101054.00
2023-03-17T08:09:17.827Z,101055.00
2023-03-17T08:11:44.356Z,101046.00
2023-03-17T08:14:11.867Z,101034.00
2023-03-17T08:16:38.424Z,101035.00
2023-03-17T08:19:06.202Z,101017.00
2023-03-17T08:21:32.851Z,101029.00
2023-03-17T08:23:59.413Z,101026.00
2023-03-17T08:26:26.991Z,101017.00
2023-03-17T08:28:53.797Z,101019.00
2023-03-17T08:31:22.662Z,101019.00
2023-03-17T08:33:51.966Z,101022.00
2023-03-17T08:36:19.637Z,101029.00
2023-03-17T08:38:47.548Z,101032.00
2023-03-17T08:41:18.366Z,101046.00
2023-03-17T08:43:46.452Z,101025.00
2023-03-17T08:46:19.504Z,101023.00
2023-03-17T08:48:48.237Z,101024.00
2023-03-17T08:51:18.182Z,101016.00
2023-03-17T08:53:46.408Z,101019.00
2023-03-17T08:56:14.128Z,101015.00
2023-03-17T08:58:40.670Z,101008.00
2023-03-17T09:01:07.205Z,101007.00
2023-03-17T09:03:34.163Z,101000.00
2023-03-17T09:06:00.898Z,100997.00
2023-03-17T09:08:27.929Z,100994.00
2023-03-17T09:10:54.646Z,101007.00
2023-03-17T09:13:22.032Z,100998.00
2023-03-17T09:15:50.117Z,100992.00
2023-03-17T09:18:20.777Z,100988.00
2023-03-17T09:20:48.432Z,100985.00
2023-03-17T09:23:14.972Z,100999.00
2023-03-17T09:25:42.385Z,100994.00
2023-03-17T09:28:11.596Z,100992.00
2023-03-17T09:30:41.242Z,100985.00
2023-03-17T09:33:08.697Z,100998.00
2023-03-17T09:35:35.280Z,100984.00
2023-03-17T09:38:02.019Z,100987.00
2023-03-17T09:40:48.353Z,100986.00
2023-03-17T09:43:44.632Z,100997.00
2023-03-17T09:46:25.166Z,101001.00
2023-03-17T09:48:59.625Z,100995.00
2023-03-17T09:51:26.639Z,100982.00
2023-03-17T09:54:01.573Z,100980.00
2023-03-17T09:56:31.733Z,100986.00
2023-03-17T09:59:03.974Z,100976.00
2023-03-17T10:01:31.035Z,100971.00
2023-03-17T10:03:58.047Z,100972.00
2023-03-17T10:06:43.667Z,100963.00
2023-03-17T10:10:02.941Z,100972.00
2023-03-17T10:12:44.782Z,100972.00
2023-03-17T10:15:20.468Z,100978.00
2023-03-17T10:17:47.958Z,100986.00
2023-03-17T10:20:26.344Z,100986.00
2023-03-17T10:22:58.217Z,100982.00
2023-03-17T10:25:30.838Z,100983.00
2023-03-17T10:27:59.885Z,100985.00
2023-03-17T10:30:27.447Z,100979.00
2023-03-17T10:32:58.788Z,100971.00
2023-03-17T10:35:26.338Z,100975.00
2023-03-17T10:38:04.433Z,100971.00
2023-03-17T10:40:38.412Z,100975.00
2023-03-17T10:43:08.761Z,100971.00
2023-03-17T10:45:40.911Z,100966.00
2023-03-17T10:48:09.975Z,100967.00
2023-03-17T10:50:41.087Z,100957.00
2023-03-17T10:53:08.736Z,100964.00
2023-03-17T10:55:38.118Z,100956.00
2023-03-17T10:58:18.019Z,100956.00
2023-03-17T11:00:56.823Z,100960.00
2023-03-17T11:03:27.272Z,100949.00
2023-03-17T11:06:15.888Z,100948.00
2023-03-17T11:08:49.532Z,100945.00
2023-03-17T11:11:27.004Z,100940.00
2023-03-17T11:14:10.643Z,100943.00
2023-03-17T11:16:40.773Z,100937.00
2023-03-17T11:19:13.326Z,100942.00
2023-03-17T11:22:11.529Z,100930.00
2023-03-17T11:24:55.724Z,100930.00
2023-03-17T11:27:34.288Z,100930.00
2023-03-17T11:30:13.437Z,100927.00
2023-03-17T11:32:47.874Z,100920.00
2023-03-17T11:35:34.325Z,100925.00
2023-03-17T11:38:29.635Z,100929.00
2023-03-17T11:41:25.688Z,100909.00
2023-03-17T11:44:12.207Z,100912.00
2023-03-17T11:46:58.234Z,100926.00
2023-03-17T11:49:32.652Z,100917.00
2023-03-17T11:52:24.532Z,100908.00
2023-03-17T11:55:12.930Z,100894.00
2023-03-17T11:57:56.143Z,100902.00
2023-03-17T12:00:39.292Z,100895.00
2023-03-17T12:03:10.904Z,100900.00
2023-03-17T12:05:38.514Z,100898.00
2023-03-17T12:08:30.217Z,100898.00
2023-03-17T12:11:01.132Z,100888.00
2023-03-17T12:13:39.847Z,100891.00
2023-03-17T12:16:41.909Z,100887.00
2023-03-17T12:19:29.759Z,100900.00
2023-03-17T12:22:06.629Z,100899.00
2023-03-17T12:24:38.698Z,100890.00
2023-03-17T12:27:29.696Z,100884.00
2023-03-17T12:30:05.505Z,100882.00
2023-03-17T12:32:39.470Z,100886.00
2023-03-17T12:35:24.010Z,100879.00
2023-03-17T12:37:51.037Z,100885.00
2023-03-17T12:40:25.123Z,100883.00
2023-03-17T12:43:29.574Z,100872.00
2023-03-17T12:46:11.419Z,100867.00
2023-03-17T12:48:55.633Z,100861.00
2023-03-17T12:51:37.915Z,100858.00
2023-03-17T12:54:11.837Z,100849.00
2023-03-17T12:56:44.929Z,100857.00
2023-03-17T12:59:18.744Z,100859.00
2023-03-17T13:01:54.776Z,100863.00
2023-03-17T13:04:36.152Z,100860.00
2023-03-17T13:07:12.840Z,100864.00
2023-03-17T13:09:47.353Z,100856.00
2023-03-17T13:12:42.184Z,100850.00
2023-03-17T13:15:28.220Z,100852.00
2023-03-17T13:18:36.645Z,100846.00
2023-03-17T13:21:06.185Z,100852.00
2023-03-17T13:23:53.008Z,100839.00
2023-03-17T13:26:22.504Z,100833.00
2023-03-17T13:28:50.965Z,100837.00
2023-03-17T13:31:37.591Z,100831.00
2023-03-17T13:34:22.418Z,100833.00
2023-03-17T13:37:05.445Z,100833.00
2023-03-17T13:39:41.051Z,100844.00
2023-03-17T13:42:23.066Z,100850.00
2023-03-17T13:45:26.288Z,100846.00
2023-03-17T13:47:55.597Z,100853.00
2023-03-17T13:50:30.376Z,100863.00
2023-03-17T13:53:08.592Z,100860.00
2023-03-17T13:55:38.910Z,100848.00
2023-03-17T13:58:22.677Z,100836.00
2023-03-17T14:00:59.835Z,100839.00
2023-03-17T14:03:40.773Z,100850.00
2023-03-17T14:06:08.835Z,100844.00
2023-03-17T14:08:37.230Z,100853.00
2023-03-17T14:11:08.926Z,100855.00
2023-03-17T14:13:44.936Z,100858.00
2023-03-17T14:16:20.185Z,100854.00
2023-03-17T14:18:50.027Z,100835.00
2023-03-17T14:21:22.069Z,100843.00
2023-03-17T14:23:59.376Z,100834.00
2023-03-17T14:26:28.696Z,100817.00
2023-03-17T14:28:55.672Z,100800.00
2023-03-17T14:31:26.968Z,100797.00
2023-03-17T14:33:58.801Z,100799.00
2023-03-17T14:36:27.583Z,100795.00
2023-03-17T14:38:55.896Z,100794.00
2023-03-17T14:41:27.747Z,100801.00
2023-03-17T14:43:59.060Z,100795.00
2023-03-17T14:46:37.282Z,100791.00
2023-03-17T14:49:23.992Z,100787.00
2023-03-17T14:51:53.551Z,100792.00
2023-03-17T14:54:33.084Z,100791.00
2023-03-17T14:57:06.412Z,100794.00
2023-03-17T14:59:37.239Z,100783.00
2023-03-17T15:02:16.029Z,100785.00
2023-03-17T15:05:02.118Z,100784.00
2023-03-17T15:07:42.577Z,100778.00
2023-03-17T15:10:21.390Z,100770.00
2023-03-17T15:12:48.436Z,100763.00
2023-03-17T15:15:26.289Z,100778.00
2023-03-17T15:17:59.645Z,100761.00
2023-03-17T15:20:26.146Z,100764.00
2023-03-17T15:22:55.558Z,100755.00
2023-03-17T15:25:33.266Z,100754.00
2023-03-17T15:27:59.778Z,100754.00
2023-03-17T15:30:34.527Z,100743.00
2023-03-17T15:33:30.465Z,100745.00
2023-03-17T15:36:00.134Z,100748.00
2023-03-17T15:38:27.458Z,100748.00
2023-03-17T15:40:54.315Z,100743.00
2023-03-17T15:43:22.076Z,100750.00
2023-03-17T15:45:59.914Z,100739.00
2023-03-17T15:48:27.993Z,100747.00
2023-03-17T15:50:56.894Z,100748.00
2023-03-17T15:53:23.345Z,100745.00
2023-03-17T15:55:49.832Z,100757.00
2023-03-17T15:58:16.344Z,100740.00
2023-03-17T16:00:43.297Z,100746.00
2023-03-17T16:03:21.082Z,100745.00
2023-03-17T16:05:47.757Z,100751.00
2023-03-17T16:08:14.960Z,100760.00
2023-03-17T16:10:41.894Z,100750.00
2023-03-17T16:13:08.331Z,100747.00
2023-03-17T16:15:38.465Z,100744.00
2023-03-17T16:18:10.193Z,100747.00
2023-03-17T16:20:39.162Z,100749.00
2023-03-17T16:23:16.299Z,100731.00
2023-03-17T16:25:43.920Z,100742.00
2023-03-17T16:28:17.097Z,100739.00
2023-03-17T16:30:44.204Z,100739.00
2023-03-17T16:33:23.249Z,100739.00
2023-03-17T16:35:52.452Z,100742.00
2023-03-17T16:38:21.289Z,100737.00
2023-03-17T16:40:54.067Z,100738.00
2023-03-17T16:43:25.935Z,100738.00
2023-03-17T16:45:55.334Z,100736.00
2023-03-17T16:48:21.946Z,100735.00
2023-03-17T16:50:49.079Z,100734.00
2023-03-17T16:53:15.560Z,100741.00
2023-03-17T16:55:42.384Z,100732.00
2023-03-17T16:58:21.123Z,100744.00
2023-03-17T17:00:50.146Z,100749.00
2023-03-17T17:03:16.926Z,100742.00
2023-03-17T17:05:44.679Z,100735.00
2023-03-17T17:08:11.687Z,100734.00
2023-03-17T17:10:38.962Z,100743.00
2023-03-17T17:13:08.710Z,100739.00
2023-03-17T17:15:36.705Z,100744.00
2023-03-17T17:18:08.002Z,100753.00
2023-03-17T17:20:38.592Z,100750.00
2023-03-17T17:23:06.977Z,100752.00
2023-03-17T17:25:33.887Z,100744.00
2023-03-17T17:28:00.580Z,100748.00
2023-03-17T17:30:29.576Z,100739.00
2023-03-17T17:32:58.728Z,100742.00
2023-03-17T17:35:27.268Z,100747.00
2023-03-17T17:37:54.381Z,100748.00
2023-03-17T17:40:24.461Z,100749.00
2023-03-17T17:42:52.575Z,100746.00
2023-03-17T17:45:20.233Z,100757.00
2023-03-17T17:47:47.336Z,100754.00
2023-03-17T17:50:20.423Z,100750.00
2023-03-17T17:52:47.917Z,100748.00
2023-03-17T17:55:14.840Z,100738.00
2023-03-17T17:57:41.929Z,100740.00
2023-03-17T18:00:10.429Z,100741.00
2023-03-17T18:02:37.025Z,100742.00
2023-03-17T18:05:05.845Z,100743.00
2023-03-17T18:07:32.392Z,100746.00
2023-03-17T18:09:59.157Z,100737.00
2023-03-17T18:12:25.632Z,100738.00
2023-03-17T18:14:52.162Z,100734.00
2023-03-17T18:17:21.754Z,100720.00
2023-03-17T18:19:49.436Z,100725.00
2023-03-17T18:22:16.998Z,100731.00
2023-03-17T18:24:44.081Z,100735.00
2023-03-17T18:27:11.488Z,100729.00
2023-03-17T18:29:38.381Z,100734.00
2023-03-17T18:32:06.745Z,100730.00
2023-03-17T18:34:39.340Z,100731.00
2023-03-17T18:37:10.071Z,100730.00
2023-03-17T18:39:36.511Z,100735.00
2023-03-17T18:42:03.074Z,100733.00
2023-03-17T18:44:29.766Z,100729.00
2023-03-17T18:46:57.004Z,100721.00
2023-03-17T18:49:25.235Z,100724.00
2023-03-17T18:51:52.281Z,100721.00
2023-03-17T18:54:18.739Z,100720.00
2023-03-17T18:56:45.263Z,100717.00
2023-03-17T18:59:11.794Z,100713.00
2023-03-17T19:01:38.521Z,100711.00
2023-03-17T19:04:05.748Z,100718.00
2023-03-17T19:06:32.633Z,100718.00
2023-03-17T19:08:59.158Z,100720.00
2023-03-17T19:11:26.287Z,100717.00
2023-03-17T19:13:52.853Z,100715.00
2023-03-17T19:16:19.436Z,100716.00
2023-03-17T19:18:47.516Z,100711.00
2023-03-17T19:21:14.260Z,100717.00
2023-03-17T19:23:41.618Z,100721.00
2023-03-17T19:26:08.705Z,100709.00
2023-03-17T19:28:35.268Z,100719.00
2023-03-17T19:31:02.014Z,100721.00
2023-03-17T19:33:29.107Z,100719.00
2023-03-17T19:35:57.214Z,100707.00
2023-03-17T19:38:24.346Z,100720.00
2023-03-17T19:40:51.916Z,100707.00
2023-03-17T19:43:36.783Z,100719.00
2023-03-17T19:46:05.391Z,100718.00
2023-03-17T19:48:33.490Z,100720.00
2023-03-17T19:51:02.468Z,100717.00
2023-03-17T19:53:28.984Z,100720.00
2023-03-17T19:55:56.710Z,100729.00
2023-03-17T19:58:23.239Z,100734.00
2023-03-17T20:00:49.808Z,100732.00
2023-03-17T20:03:16.612Z,100731.00
2023-03-17T20:05:45.585Z,100729.00
2023-03-17T20:08:12.162Z,100730.00
2023-03-17T20:10:38.761Z,100746.00
2023-03-17T20:13:05.328Z,100729.00
2023-03-17T20:15:31.832Z,100735.00
2023-03-17T20:17:58.573Z,100739.00
2023-03-17T20:20:25.342Z,100739.00
2023-03-17T20:22:51.816Z,100726.00
2023-03-17T20:25:18.379Z,100726.00
2023-03-17T20:27:44.925Z,100722.00
2023-03-17T20:30:12.909Z,100721.00
2023-03-17T20:32:39.666Z,100718.00
2023-03-17T20:35:08.185Z,100717.00
2023-03-17T20:37:35.725Z,100718.00
2023-03-17T20:40:04.833Z,100718.00
2023-03-17T20:42:31.974Z,100721.00
2023-03-17T20:44:58.606Z,100719.00
2023-03-17T20:47:25.318Z,100715.00
2023-03-17T20:49:58.846Z,100716.00
2023-03-17T20:52:29.512Z,100717.00
2023-03-17T20:54:56.518Z,100712.00
2023-03-17T20:57:23.003Z,100705.00
2023-03-17T20:59:51.274Z,100712.00
2023-03-17T21:02:18.758Z,100709.00
2023-03-17T21:04:48.086Z,100720.00
2023-03-17T21:07:19.545Z,100713.00
2023-03-17T21:09:46.681Z,100718.00
2023-03-17T21:12:15.662Z,100722.00
2023-03-17T21:14:42.880Z,100722.00
2023-03-17T21:17:10.468Z,100718.00
2023-03-17T21:19:37.865Z,100714.00
2023-03-17T21:22:05.569Z,100707.00
2023-03-17T21:24:34.995Z,100707.00
2023-03-17T21:27:04.234Z,100702.00
2023-03-17T21:29:32.779Z,100699.00
2023-03-17T21:32:00.970Z,100708.00
2023-03-17T21:34:30.844Z,100712.00
2023-03-17T21:36:58.564Z,100707.00
2023-03-17T21:39:29.303Z,100704.00
2023-03-17T21:41:56.941Z,100708.00
2023-03-17T21:44:23.712Z,100700.00
2023-03-17T21:46:50.922Z,100702.00
2023-03-17T21:49:18.796Z,100697.00
2023-03-17T21:51:46.706Z,100688.00
2023-03-17T21:54:14.286Z,100697.00
2023-03-17T21:56:41.508Z,100686.00
2023-03-17T21:59:11.200Z,100686.00
2023-03-17T22:01:41.929Z,100679.00
2023-03-17T22:04:09.968Z,100680.00
2023-03-17T22:06:36.516Z,100687.00
2023-03-17T22:09:04.380Z,100699.00
2023-03-17T22:11:31.402Z,100682.00
2023-03-17T22:13:58.694Z,100688.00
2023-03-17T22:16:25.466Z,100696.00
2023-03-17T22:18:52.095Z,100690.00
2023-03-17T22:21:18.742Z,100698.00
2023-03-17T22:23:46.232Z,100687.00
2023-03-17T22:26:15.184Z,100689.00
2023-03-17T22:28:43.177Z,100688.00
2023-03-17T22:31:15.679Z,100676.00
2023-03-17T22:33:42.865Z,100685.00
2023-03-17T22:36:10.106Z,100669.00
2023-03-17T22:38:37.250Z,100678.00
2023-03-17T22:41:07.858Z,100674.00
2023-03-17T22:43:36.587Z,100665.00
2023-03-17T22:46:04.001Z,100673.00
2023-03-17T22:48:32.789Z,100662.00
2023-03-17T22:51:09.038Z,100671.00
2023-03-17T22:53:35.881Z,100670.00
2023-03-17T22:56:04.164Z,100662.00
2023-03-17T22:58:31.131Z,100669.00
2023-03-17T23:00:57.870Z,100671.00
2023-03-17T23:03:25.998Z,100668.00
2023-03-17T23:06:00.519Z,100672.00
2023-03-17T23:08:29.377Z,100668.00
2023-03-17T23:10:56.810Z,100663.00
2023-03-17T23:13:24.389Z,100669.00
2023-03-17T23:15:50.845Z,100661.00
2023-03-17T23:18:17.521Z,100666.00
2023-03-17T23:20:44.035Z,100654.00
2023-03-17T23:23:11.650Z,100655.00
2023-03-17T23:25:38.566Z,100653.00
2023-03-17T23:28:06.003Z,100650.00
2023-03-17T23:30:32.753Z,100650.00
2023-03-17T23:32:59.763Z,100644.00
2023-03-17T23:35:26.347Z,100648.00
2023-03-17T23:37:53.117Z,100652.00
2023-03-17T23:40:20.353Z,100646.00
2023-03-17T23:42:49.324Z,100654.00
2023-03-17T23:45:18.070Z,100652.00
2023-03-17T23:47:46.677Z,100653.00
2023-03-17T23:50:14.591Z,100655.00
2023-03-17T23:52:42.471Z,100658.00
2023-03-17T23:55:11.753Z,100658.00
2023-03-17T23:57:39.385Z,100660.00
